createdAt,value
2018-02-01T00:01:23.420Z,2.20
2018-02-01T00:03:50.953Z,2.10
2018-02-01T00:06:18.381Z,2.00
2018-02-01T00:08:45.817Z,2.00
2018-02-01T00:11:13.290Z,2.00
2018-02-01T00:13:40.766Z,1.90
2018-02-01T00:16:08.197Z,1.90
2018-02-01T00:18:35.639Z,1.90
2018-02-01T00:32:25.737Z,1.90
2018-02-01T00:34:53.167Z,2.00
2018-02-01T00:37:20.625Z,2.00
2018-02-01T00:39:48.070Z,2.10
2018-02-01T00:42:15.547Z,2.10
2018-02-01T00:44:42.946Z,2.20
2018-02-01T00:47:10.377Z,2.20
2018-02-01T00:49:37.801Z,2.20
2018-02-01T00:52:05.266Z,2.30
2018-02-01T00:54:32.714Z,2.40
2018-02-01T00:57:00.198Z,2.40
2018-02-01T00:59:27.613Z,2.50
2018-02-01T01:01:55.049Z,2.50
2018-02-01T01:04:22.479Z,2.50
2018-02-01T01:06:49.934Z,2.50
2018-02-01T01:09:17.394Z,2.50
2018-02-01T01:11:44.825Z,2.50
2018-02-01T01:14:12.266Z,2.50
2018-02-01T01:16:39.729Z,2.50
2018-02-01T01:19:07.145Z,2.40
2018-02-01T01:21:34.581Z,2.40
2018-02-01T01:24:02.005Z,2.40
2018-02-01T01:26:29.449Z,2.30
2018-02-01T01:28:56.887Z,2.30
2018-02-01T01:31:24.405Z,2.30
2018-02-01T01:33:51.838Z,2.30
2018-02-01T01:36:19.289Z,2.30
2018-02-01T01:38:46.779Z,2.30
2018-02-01T01:41:14.161Z,2.20
2018-02-01T01:43:41.593Z,2.20
2018-02-01T01:46:10.559Z,2.20
2018-02-01T01:48:38.005Z,2.20
2018-02-01T01:51:05.491Z,2.20
2018-02-01T01:53:32.935Z,2.20
2018-02-01T01:56:00.382Z,2.20
2018-02-01T01:58:27.812Z,2.20
2018-02-01T02:00:55.265Z,2.30
2018-02-01T02:03:22.887Z,2.30
2018-02-01T02:05:51.094Z,2.30
2018-02-01T02:08:18.540Z,2.30
2018-02-01T02:10:45.975Z,2.40
2018-02-01T02:13:13.434Z,2.30
2018-02-01T02:15:41.029Z,2.30
2018-02-01T02:18:08.500Z,2.30
2018-02-01T02:20:36.002Z,2.20
2018-02-01T02:23:03.486Z,2.20
2018-02-01T02:25:31.678Z,2.10
2018-02-01T02:27:59.128Z,2.10
2018-02-01T02:30:26.561Z,2.10
2018-02-01T02:32:54.026Z,2.00
2018-02-01T02:35:21.458Z,2.00
2018-02-01T02:37:49.131Z,2.10
2018-02-01T02:40:16.574Z,2.00
2018-02-01T02:42:44.023Z,2.00
2018-02-01T02:45:11.483Z,2.00
2018-02-01T02:47:38.930Z,2.00
2018-02-01T02:50:06.411Z,2.00
2018-02-01T02:52:34.633Z,2.00
2018-02-01T02:55:02.260Z,2.00
2018-02-01T02:57:29.698Z,2.00
2018-02-01T02:59:57.158Z,2.00
2018-02-01T03:02:24.649Z,2.00
2018-02-01T03:04:52.099Z,2.00
2018-02-01T03:07:19.539Z,2.00
2018-02-01T03:09:47.004Z,2.00
2018-02-01T03:12:14.435Z,2.00
2018-02-01T03:14:41.906Z,2.00
2018-02-01T03:17:09.342Z,2.00
2018-02-01T03:19:36.806Z,2.00
2018-02-01T03:22:04.242Z,2.00
2018-02-01T03:24:31.690Z,2.00
2018-02-01T03:26:59.130Z,1.90
2018-02-01T03:29:26.619Z,2.00
2018-02-01T03:31:54.098Z,2.00
2018-02-01T03:34:21.535Z,2.00
2018-02-01T03:36:49.024Z,2.10
2018-02-01T03:39:17.227Z,2.00
2018-02-01T03:41:44.698Z,2.00
2018-02-01T03:44:12.170Z,2.10
2018-02-01T03:46:39.626Z,2.10
2018-02-01T03:49:07.067Z,2.10
2018-02-01T03:51:34.702Z,2.10
2018-02-01T03:54:02.150Z,2.10
2018-02-01T03:56:29.594Z,2.10
2018-02-01T03:58:57.032Z,2.10
2018-02-01T04:01:24.483Z,2.10
2018-02-01T04:03:51.918Z,2.10
2018-02-01T04:06:19.434Z,2.10
2018-02-01T04:08:46.862Z,2.10
2018-02-01T04:11:14.310Z,2.10
2018-02-01T04:13:41.767Z,2.10
2018-02-01T04:16:09.212Z,2.20
2018-02-01T04:18:36.654Z,2.10
2018-02-01T04:21:04.110Z,2.20
2018-02-01T04:23:31.638Z,2.10
2018-02-01T04:25:59.074Z,2.20
2018-02-01T04:28:26.520Z,2.20
2018-02-01T04:30:53.971Z,2.20
2018-02-01T04:33:21.410Z,2.20
2018-02-01T04:35:48.848Z,2.20
2018-02-01T04:38:16.308Z,2.20
2018-02-01T04:40:43.762Z,2.20
2018-02-01T04:43:11.207Z,2.20
2018-02-01T04:45:38.642Z,2.20
2018-02-01T04:48:06.889Z,2.20
2018-02-01T04:50:34.318Z,2.20
2018-02-01T04:53:01.785Z,2.20
2018-02-01T04:55:29.982Z,2.10
2018-02-01T04:57:57.430Z,2.10
2018-02-01T05:00:24.866Z,2.10
2018-02-01T05:02:52.308Z,2.10
2018-02-01T05:05:19.746Z,2.20
2018-02-01T05:07:47.194Z,2.10
2018-02-01T05:10:14.629Z,2.20
2018-02-01T05:12:42.084Z,2.10
2018-02-01T05:15:11.041Z,2.10
2018-02-01T05:17:38.618Z,2.20
2018-02-01T05:20:06.058Z,2.10
2018-02-01T05:22:33.498Z,2.10
2018-02-01T05:25:00.942Z,2.10
2018-02-01T05:27:28.394Z,2.10
2018-02-01T05:29:55.846Z,2.10
2018-02-01T05:32:23.278Z,2.10
2018-02-01T05:34:50.726Z,2.00
2018-02-01T05:37:18.171Z,1.90
2018-02-01T05:39:45.618Z,2.00
2018-02-01T05:42:13.055Z,2.00
2018-02-01T05:44:40.550Z,2.00
2018-02-01T05:47:07.970Z,2.00
2018-02-01T05:49:35.411Z,2.00
2018-02-01T05:52:02.870Z,2.00
2018-02-01T05:54:30.350Z,2.00
2018-02-01T05:56:57.790Z,2.00
2018-02-01T05:59:25.230Z,2.00
2018-02-01T06:01:52.670Z,2.00
2018-02-01T06:04:20.189Z,2.00
2018-02-01T06:06:48.856Z,2.00
2018-02-01T06:09:16.308Z,2.00
2018-02-01T06:11:43.754Z,1.80
2018-02-01T06:14:11.242Z,1.90
2018-02-01T06:16:38.706Z,1.90
2018-02-01T06:19:06.926Z,2.00
2018-02-01T06:21:35.132Z,1.90
2018-02-01T06:24:02.566Z,1.90
2018-02-01T06:26:30.023Z,1.90
2018-02-01T06:28:57.482Z,1.90
2018-02-01T06:31:24.927Z,1.80
2018-02-01T06:33:52.364Z,1.90
2018-02-01T06:36:19.818Z,1.90
2018-02-01T06:38:47.255Z,1.90
2018-02-01T06:41:14.698Z,1.90
2018-02-01T06:43:42.222Z,1.80
2018-02-01T06:46:09.671Z,1.80
2018-02-01T06:48:37.114Z,1.80
2018-02-01T06:51:04.547Z,1.90
2018-02-01T06:53:32.032Z,1.80
2018-02-01T06:55:59.466Z,1.80
2018-02-01T06:58:26.910Z,1.80
2018-02-01T07:00:54.344Z,1.80
2018-02-01T07:03:21.787Z,1.80
2018-02-01T07:05:49.213Z,1.80
2018-02-01T07:08:16.658Z,1.80
2018-02-01T07:10:44.090Z,1.80
2018-02-01T07:13:11.562Z,1.80
2018-02-01T07:15:39.134Z,1.70
2018-02-01T07:18:06.579Z,1.70
2018-02-01T07:20:34.006Z,1.80
2018-02-01T07:23:01.455Z,1.80
2018-02-01T07:25:28.893Z,1.80
2018-02-01T07:27:57.118Z,1.80
2018-02-01T07:30:24.571Z,1.80
2018-02-01T07:32:52.019Z,1.80
2018-02-01T07:35:19.450Z,1.80
2018-02-01T07:37:46.894Z,1.80
2018-02-01T07:40:14.354Z,1.80
2018-02-01T07:42:41.803Z,1.80
2018-02-01T07:45:09.272Z,1.80
2018-02-01T07:47:36.703Z,1.90
2018-02-01T07:50:04.144Z,1.90
2018-02-01T07:52:31.579Z,1.90
2018-02-01T07:54:59.066Z,2.00
2018-02-01T07:57:26.482Z,1.90
2018-02-01T07:59:53.958Z,2.00
2018-02-01T08:02:21.411Z,2.00
2018-02-01T08:04:48.875Z,2.00
2018-02-01T08:07:16.310Z,2.10
2018-02-01T08:09:43.837Z,2.10
2018-02-01T08:12:11.262Z,2.10
2018-02-01T08:14:38.715Z,2.10
2018-02-01T08:17:06.152Z,2.10
2018-02-01T08:19:33.609Z,2.10
2018-02-01T08:22:01.046Z,2.20
2018-02-01T08:24:28.520Z,2.30
2018-02-01T08:26:55.958Z,2.30
2018-02-01T08:29:24.228Z,2.40
2018-02-01T08:31:51.683Z,2.40
2018-02-01T08:34:19.118Z,2.50
2018-02-01T08:36:46.554Z,2.50
2018-02-01T08:39:14.013Z,2.60
2018-02-01T08:41:42.955Z,2.80
2018-02-01T08:44:10.395Z,2.80
2018-02-01T08:46:37.843Z,2.80
2018-02-01T08:49:05.278Z,2.90
2018-02-01T08:51:32.762Z,2.90
2018-02-01T08:54:00.210Z,2.90
2018-02-01T08:56:27.715Z,2.80
2018-02-01T08:58:55.163Z,2.90
2018-02-01T09:01:22.611Z,2.90
2018-02-01T09:03:50.050Z,2.90
2018-02-01T09:06:17.482Z,3.00
2018-02-01T09:08:44.935Z,3.00
2018-02-01T09:11:12.371Z,3.10
2018-02-01T09:13:39.811Z,3.00
2018-02-01T09:16:07.244Z,3.00
2018-02-01T09:18:34.694Z,3.10
2018-02-01T09:21:02.155Z,3.10
2018-02-01T09:23:29.579Z,3.20
2018-02-01T09:25:57.011Z,3.40
2018-02-01T09:28:24.490Z,3.50
2018-02-01T09:30:51.952Z,3.40
2018-02-01T09:33:21.363Z,3.60
2018-02-01T09:35:48.806Z,3.60
2018-02-01T09:38:16.238Z,3.60
2018-02-01T09:40:43.714Z,3.80
2018-02-01T09:43:11.138Z,3.90
2018-02-01T09:45:38.586Z,3.80
2018-02-01T09:48:06.040Z,3.90
2018-02-01T09:50:34.250Z,3.90
2018-02-01T09:53:01.691Z,3.90
2018-02-01T09:55:29.162Z,3.90
2018-02-01T09:57:56.602Z,4.10
2018-02-01T10:00:24.055Z,4.10
2018-02-01T10:02:51.489Z,4.20
2018-02-01T10:05:18.958Z,4.40
2018-02-01T10:07:46.427Z,4.80
2018-02-01T10:10:13.875Z,5.20
2018-02-01T10:12:41.377Z,4.70
2018-02-01T10:15:08.778Z,4.60
2018-02-01T10:17:36.245Z,4.50
2018-02-01T10:20:03.702Z,4.30
2018-02-01T10:22:31.183Z,4.30
2018-02-01T10:38:05.083Z,5.30
2018-02-01T10:40:32.530Z,5.30
2018-02-01T10:42:59.967Z,5.40
2018-02-01T10:45:27.412Z,5.30
2018-02-01T10:47:54.916Z,5.90
2018-02-01T10:50:22.371Z,6.30
2018-02-01T10:52:49.793Z,6.20
2018-02-01T10:55:17.249Z,6.40
2018-02-01T10:57:44.719Z,6.30
2018-02-01T11:00:12.224Z,6.20
2018-02-01T11:02:39.631Z,6.10
2018-02-01T11:05:07.103Z,5.80
2018-02-01T11:07:34.543Z,5.90
2018-02-01T11:10:02.002Z,5.90
2018-02-01T11:12:29.447Z,6.20
2018-02-01T11:14:56.906Z,5.80
2018-02-01T11:17:24.374Z,6.00
2018-02-01T11:19:51.842Z,5.90
2018-02-01T11:22:19.286Z,5.60
2018-02-01T11:24:46.756Z,5.90
2018-02-01T11:27:14.244Z,6.20
2018-02-01T11:29:41.682Z,6.30
2018-02-01T11:32:09.130Z,6.70
2018-02-01T11:34:36.598Z,6.80
2018-02-01T11:37:04.082Z,7.30
2018-02-01T11:39:31.550Z,7.80
2018-02-01T11:41:59.020Z,7.50
2018-02-01T11:44:27.250Z,7.80
2018-02-01T11:46:54.704Z,7.70
2018-02-01T11:49:22.154Z,7.90
2018-02-01T11:51:49.622Z,8.00
2018-02-01T11:54:17.093Z,7.80
2018-02-01T11:56:44.542Z,7.60
2018-02-01T11:59:12.031Z,7.70
2018-02-01T12:01:39.481Z,7.10
2018-02-01T12:04:06.935Z,6.40
2018-02-01T12:06:34.438Z,6.20
2018-02-01T12:09:01.890Z,6.00
2018-02-01T12:11:29.347Z,5.80
2018-02-01T12:13:56.813Z,5.50
2018-02-01T12:16:25.074Z,5.30
2018-02-01T12:18:52.531Z,5.30
2018-02-01T12:21:19.987Z,5.30
2018-02-01T12:23:47.502Z,5.30
2018-02-01T12:26:14.973Z,5.10
2018-02-01T12:28:42.452Z,5.00
2018-02-01T12:31:09.911Z,4.80
2018-02-01T12:33:37.378Z,4.70
2018-02-01T12:36:04.835Z,4.60
2018-02-01T12:38:32.290Z,4.50
2018-02-01T12:40:59.766Z,4.50
2018-02-01T12:43:27.234Z,4.50
2018-02-01T12:45:54.702Z,4.60
2018-02-01T12:48:22.150Z,4.60
2018-02-01T12:50:49.610Z,4.60
2018-02-01T12:53:17.059Z,4.60
2018-02-01T12:55:44.512Z,4.60
2018-02-01T12:58:11.978Z,4.60
2018-02-01T13:00:39.443Z,4.60
2018-02-01T13:03:06.890Z,4.60
2018-02-01T13:05:34.373Z,4.60
2018-02-01T13:08:01.853Z,4.50
2018-02-01T13:10:29.317Z,4.40
2018-02-01T13:12:56.792Z,4.40
2018-02-01T13:15:24.246Z,4.40
2018-02-01T13:17:51.689Z,4.20
2018-02-01T13:20:19.155Z,4.10
2018-02-01T13:22:46.618Z,4.10
2018-02-01T13:25:14.246Z,4.10
2018-02-01T13:27:41.700Z,4.40
2018-02-01T13:30:09.164Z,4.80
2018-02-01T13:32:36.610Z,5.50
2018-02-01T13:35:04.074Z,5.80
2018-02-01T13:37:31.768Z,6.10
2018-02-01T13:39:59.206Z,6.20
2018-02-01T13:42:26.650Z,6.80
2018-02-01T13:44:55.159Z,6.50
2018-02-01T13:47:22.635Z,6.40
2018-02-01T13:49:51.269Z,5.70
2018-02-01T13:52:18.775Z,5.30
2018-02-01T13:54:46.206Z,5.20
2018-02-01T13:57:13.662Z,5.00
2018-02-01T13:59:41.120Z,5.00
2018-02-01T14:02:08.581Z,5.10
2018-02-01T14:04:37.245Z,5.20
2018-02-01T14:07:05.478Z,4.80
2018-02-01T14:09:32.930Z,4.80
2018-02-01T14:12:00.398Z,4.80
2018-02-01T14:14:28.926Z,4.80
2018-02-01T14:16:56.426Z,4.70
2018-02-01T14:19:24.654Z,4.70
2018-02-01T14:21:52.881Z,4.60
2018-02-01T14:24:20.334Z,4.60
2018-02-01T14:26:47.795Z,4.60
2018-02-01T14:29:15.255Z,4.40
2018-02-01T14:31:42.711Z,4.50
2018-02-01T14:34:10.175Z,4.40
2018-02-01T14:36:37.630Z,4.30
2018-02-01T14:39:05.107Z,4.40
2018-02-01T14:41:32.582Z,4.40
2018-02-01T14:44:00.029Z,4.40
2018-02-01T14:46:27.486Z,4.40
2018-02-01T14:48:54.930Z,4.50
2018-02-01T14:51:22.399Z,4.40
2018-02-01T14:53:49.854Z,4.20
2018-02-01T14:56:17.330Z,4.10
2018-02-01T14:58:44.999Z,4.10
2018-02-01T15:01:12.450Z,4.10
2018-02-01T15:03:39.894Z,4.20
2018-02-01T15:06:07.349Z,3.90
2018-02-01T15:08:34.795Z,3.90
2018-02-01T15:11:02.259Z,4.00
2018-02-01T15:13:29.718Z,4.10
2018-02-01T15:15:57.183Z,4.00
2018-02-01T15:18:24.634Z,3.80
2018-02-01T15:20:52.246Z,3.70
2018-02-01T15:23:19.695Z,3.60
2018-02-01T15:25:47.154Z,3.60
2018-02-01T15:28:14.790Z,3.50
2018-02-01T15:30:42.278Z,3.40
2018-02-01T15:33:09.734Z,3.40
2018-02-01T15:35:37.190Z,3.40
2018-02-01T15:38:04.642Z,3.40
2018-02-01T15:40:32.206Z,3.50
2018-02-01T15:42:59.671Z,3.40
2018-02-01T15:45:27.121Z,3.50
2018-02-01T15:47:54.578Z,3.40
2018-02-01T15:50:22.199Z,3.40
2018-02-01T15:52:49.662Z,3.40
2018-02-01T15:55:17.106Z,3.50
2018-02-01T15:57:44.974Z,3.40
2018-02-01T16:00:13.199Z,3.40
2018-02-01T16:02:40.731Z,3.40
2018-02-01T16:05:08.191Z,3.40
2018-02-01T16:07:35.656Z,3.40
2018-02-01T16:10:03.132Z,3.50
2018-02-01T16:12:30.585Z,3.50
2018-02-01T16:14:58.034Z,3.50
2018-02-01T16:17:25.518Z,3.50
2018-02-01T16:19:54.144Z,3.60
2018-02-01T16:22:21.611Z,3.50
2018-02-01T16:24:49.058Z,3.50
2018-02-01T16:27:16.518Z,3.40
2018-02-01T16:29:44.021Z,3.50
2018-02-01T16:32:11.450Z,3.50
2018-02-01T16:34:38.899Z,3.50
2018-02-01T16:37:06.354Z,3.50
2018-02-01T16:39:33.802Z,3.60
2018-02-01T16:42:01.263Z,3.60
2018-02-01T16:44:28.706Z,3.60
2018-02-01T16:46:56.166Z,3.60
2018-02-01T16:49:23.655Z,3.60
2018-02-01T16:51:51.130Z,3.60
2018-02-01T16:54:19.766Z,3.60
2018-02-01T16:56:48.004Z,3.60
2018-02-01T16:59:15.450Z,3.60
2018-02-01T17:01:42.910Z,3.50
2018-02-01T17:04:10.361Z,3.50
2018-02-01T17:06:37.818Z,3.50
2018-02-01T17:09:05.270Z,3.50
2018-02-01T17:11:32.734Z,3.40
2018-02-01T17:14:00.180Z,3.40
2018-02-01T17:16:27.636Z,3.50
2018-02-01T17:18:55.090Z,3.40
2018-02-01T17:21:22.570Z,3.50
2018-02-01T17:23:50.068Z,3.40
2018-02-01T17:26:18.306Z,3.40
2018-02-01T17:28:45.819Z,3.40
2018-02-01T17:31:13.280Z,3.50
2018-02-01T17:33:40.726Z,3.50
2018-02-01T17:36:08.179Z,3.50
2018-02-01T17:38:35.772Z,3.50
2018-02-01T17:41:03.242Z,3.50
2018-02-01T17:43:30.702Z,3.50
2018-02-01T17:45:58.146Z,3.50
2018-02-01T17:48:25.639Z,3.50
2018-02-01T17:50:53.146Z,3.50
2018-02-01T17:53:20.613Z,3.50
2018-02-01T17:55:48.098Z,3.30
2018-02-01T17:58:15.555Z,3.30
2018-02-01T18:00:43.022Z,3.30
2018-02-01T18:03:10.518Z,3.20
2018-02-01T18:05:38.000Z,3.10
2018-02-01T18:08:05.439Z,3.10
2018-02-01T18:10:32.926Z,3.10
2018-02-01T18:13:00.387Z,3.00
2018-02-01T18:15:27.864Z,3.00
2018-02-01T18:17:55.335Z,3.10
2018-02-01T18:20:22.788Z,3.10
2018-02-01T18:22:50.254Z,3.10
2018-02-01T18:25:17.754Z,3.10
2018-02-01T18:27:45.203Z,3.10
2018-02-01T18:30:12.783Z,3.00
2018-02-01T18:32:40.245Z,3.10
2018-02-01T18:35:07.715Z,3.00
2018-02-01T18:37:35.967Z,2.80
2018-02-01T18:40:03.434Z,2.80
2018-02-01T18:42:30.988Z,2.80
2018-02-01T18:44:58.438Z,2.80
2018-02-01T18:47:25.914Z,2.80
2018-02-01T18:49:53.524Z,2.80
2018-02-01T18:52:20.942Z,2.80
2018-02-01T18:54:48.432Z,2.80
2018-02-01T18:57:15.883Z,2.80
2018-02-01T18:59:43.480Z,2.80
2018-02-01T19:02:10.973Z,2.80
2018-02-01T19:04:38.432Z,2.70
2018-02-01T19:07:05.922Z,2.60
2018-02-01T19:09:33.618Z,2.70
2018-02-01T19:12:01.091Z,2.70
2018-02-01T19:14:28.538Z,2.70
2018-02-01T19:16:56.018Z,2.70
2018-02-01T19:19:23.486Z,2.70
2018-02-01T19:21:50.958Z,2.70
2018-02-01T19:24:18.641Z,2.70
2018-02-01T19:26:46.113Z,2.80
2018-02-01T19:29:13.600Z,2.80
2018-02-01T19:31:41.068Z,2.80
2018-02-01T19:34:08.562Z,2.90
2018-02-01T19:36:36.016Z,2.90
2018-02-01T19:39:03.481Z,2.90
2018-02-01T19:41:30.955Z,3.00
2018-02-01T19:43:58.432Z,3.00
2018-02-01T19:46:25.879Z,3.00
2018-02-01T19:48:53.354Z,3.00
2018-02-01T19:51:20.805Z,3.00
2018-02-01T19:53:48.474Z,3.00
2018-02-01T19:56:15.924Z,3.00
2018-02-01T19:58:43.384Z,2.90
2018-02-01T20:01:10.873Z,2.90
2018-02-01T20:03:38.331Z,2.80
2018-02-01T20:06:05.783Z,2.80
2018-02-01T20:08:33.274Z,2.90
2018-02-01T20:11:01.007Z,2.80
2018-02-01T20:13:28.482Z,2.80
2018-02-01T20:15:55.940Z,2.80
2018-02-01T20:18:23.446Z,2.70
2018-02-01T20:20:50.902Z,2.70
2018-02-01T20:23:18.414Z,2.70
2018-02-01T20:25:45.904Z,2.60
2018-02-01T20:28:13.362Z,2.60
2018-02-01T20:30:41.582Z,2.60
2018-02-01T20:33:09.914Z,2.60
2018-02-01T20:35:37.382Z,2.60
2018-02-01T20:38:04.861Z,2.60
2018-02-01T20:40:32.329Z,2.60
2018-02-01T20:42:59.790Z,2.60
2018-02-01T20:45:27.242Z,2.60
2018-02-01T20:47:54.741Z,2.50
2018-02-01T20:50:22.955Z,2.50
2018-02-01T20:52:50.418Z,2.50
2018-02-01T20:55:17.894Z,2.50
2018-02-01T20:57:45.410Z,2.50
2018-02-01T21:00:12.867Z,2.40
2018-02-01T21:02:40.334Z,2.50
2018-02-01T21:05:07.786Z,2.40
2018-02-01T21:07:35.252Z,2.40
2018-02-01T21:10:02.726Z,2.40
2018-02-01T21:12:30.175Z,2.50
2018-02-01T21:14:58.838Z,2.40
2018-02-01T21:17:26.286Z,2.40
2018-02-01T21:19:53.758Z,2.40
2018-02-01T21:22:21.246Z,2.40
2018-02-01T21:24:48.698Z,2.40
2018-02-01T21:27:16.422Z,2.40
2018-02-01T21:29:43.900Z,2.30
2018-02-01T21:32:11.374Z,2.30
2018-02-01T21:34:39.597Z,2.30
2018-02-01T21:37:07.838Z,2.20
2018-02-01T21:39:35.306Z,2.20
2018-02-01T21:42:02.777Z,2.20
2018-02-01T21:44:30.483Z,2.20
2018-02-01T21:46:57.962Z,2.20
2018-02-01T21:49:27.006Z,2.20
2018-02-01T21:51:55.222Z,2.20
2018-02-01T21:54:22.690Z,2.10
2018-02-01T21:56:50.170Z,2.10
2018-02-01T21:59:17.625Z,2.10
2018-02-01T22:01:45.086Z,2.20
2018-02-01T22:04:12.554Z,2.20
2018-02-01T22:06:40.002Z,2.20
2018-02-01T22:09:07.486Z,2.20
2018-02-01T22:11:34.956Z,2.30
2018-02-01T22:14:02.428Z,2.30
2018-02-01T22:16:29.916Z,2.40
2018-02-01T22:18:57.328Z,2.40
2018-02-01T22:21:24.782Z,2.40
2018-02-01T22:23:52.246Z,2.40
2018-02-01T22:26:19.710Z,2.40
2018-02-01T22:28:47.175Z,2.40
2018-02-01T22:31:14.651Z,2.30
2018-02-01T22:33:42.115Z,2.30
2018-02-01T22:36:09.586Z,2.30
2018-02-01T22:38:37.058Z,2.30
2018-02-01T22:41:05.369Z,2.40
2018-02-01T22:43:32.826Z,2.40
2018-02-01T22:46:00.280Z,2.40
2018-02-01T22:48:27.774Z,2.50
2018-02-01T22:50:55.198Z,2.40
2018-02-01T22:53:22.646Z,2.50
2018-02-01T22:55:50.095Z,2.50
2018-02-01T22:58:17.545Z,2.50
2018-02-01T23:00:45.014Z,2.50
2018-02-01T23:03:12.483Z,2.50
2018-02-01T23:05:39.942Z,2.50
2018-02-01T23:08:07.518Z,2.50
2018-02-01T23:10:35.011Z,2.50
2018-02-01T23:13:02.462Z,2.60
2018-02-01T23:15:29.938Z,2.60
2018-02-01T23:17:59.350Z,2.70
2018-02-01T23:20:27.573Z,2.70
2018-02-01T23:22:55.023Z,2.70
2018-02-01T23:25:22.490Z,2.70
2018-02-01T23:27:49.971Z,2.70
2018-02-01T23:30:17.446Z,2.70
2018-02-01T23:32:45.668Z,2.70
2018-02-01T23:35:13.138Z,2.70
2018-02-01T23:37:40.595Z,2.80
2018-02-01T23:40:08.054Z,2.80
2018-02-01T23:42:35.510Z,2.80
2018-02-01T23:45:03.006Z,2.90
2018-02-01T23:47:30.455Z,2.80
2018-02-01T23:49:58.172Z,2.80
2018-02-01T23:52:25.618Z,2.80
2018-02-01T23:54:53.070Z,2.80
2018-02-01T23:57:20.519Z,2.70
2018-02-01T23:59:48.000Z,2.70
